Time;durP1;ratioP1;P1;durP2;ratioP2;P2;SDS_P1;SDS_P2;PMS_P1;PMS_P2;Temp;Humidity;BMP_temperature;BMP_pressure;BME280_temperature;BME280_humidity;BME280_pressure;Samples;Min_cycle;Max_cycle;Signal;HPM_P1;HPM_P2
2021/07/13 00:00:50;;;;;;;;;;;19.20;99.90;;;18.12;80.35;94885.44;10353775;28;2340;-82
2021/07/13 00:05:53;;;;;;;;;;;19.20;99.90;;;17.99;80.97;94868.34;10356716;28;2339;-81
2021/07/13 00:10:55;;;;;;;;;;;19.00;99.90;;;17.91;81.94;94873.91;10348435;28;2253;-81
2021/07/13 00:15:58;;;;;;;;;;;19.00;99.90;;;17.99;82.17;94873.00;10357575;28;2719;-81
2021/07/13 00:21:01;;;;;;;;;;;19.00;99.90;;;17.94;82.61;94860.44;10363253;28;2244;-81
2021/07/13 00:26:04;;;;;;;;;;;19.00;99.90;;;17.96;82.82;94849.22;10338356;28;2480;-80
2021/07/13 00:31:07;;;;;;;;;;;18.90;99.90;;;17.94;82.98;94844.13;10349134;28;2236;-80
2021/07/13 00:36:09;;;;;;;;;;;18.90;99.90;;;17.98;82.87;94830.63;10349053;28;2388;-81
2021/07/13 00:41:12;;;;;;;;;;;18.90;99.90;;;17.89;83.08;94844.38;10350146;28;2282;-81
2021/07/13 00:46:15;;;;;;;;;;;18.90;99.90;;;17.84;83.75;94836.44;10348470;28;2399;-80
2021/07/13 00:51:18;;;;;;;;;;;18.80;99.90;;;17.94;83.05;94824.28;10352374;28;2308;-80
2021/07/13 00:56:21;;;;;;;;;;;18.90;99.90;;;17.92;83.42;94829.28;10351978;28;2221;-79
2021/07/13 01:01:23;;;;;;;;;;;18.90;99.90;;;17.88;83.86;94821.03;10352120;28;2384;-79
2021/07/13 01:06:26;;;;;;;;;;;18.90;99.90;;;17.91;83.73;94819.53;10347421;28;2332;-81
2021/07/13 01:11:29;;;;;;;;;;;18.90;99.90;;;17.83;84.16;94804.94;10378914;28;1863;-82
2021/07/13 01:16:32;;;;;;;;;;;18.90;99.90;;;17.85;83.68;94794.53;10368941;28;2032;-80
2021/07/13 01:21:35;;;;;;;;;;;18.90;99.90;;;17.89;83.74;94795.44;10386443;28;2425;-78
2021/07/13 01:26:37;;;;;;;;;;;18.80;99.90;;;17.94;83.56;94807.97;10370862;28;2394;-81
2021/07/13 01:31:40;;;;;;;;;;;18.90;99.90;;;17.94;82.75;94810.69;10369936;28;2529;-82
2021/07/13 01:36:44;;;;;;;;;;;19.00;99.90;;;18.01;83.08;94805.50;10372058;28;2612;-81
2021/07/13 01:41:46;;;;;;;;;;;18.90;99.90;;;17.87;82.84;94803.13;10368841;28;2449;-81
2021/07/13 01:46:50;;;;;;;;;;;18.90;99.90;;;17.96;83.16;94811.16;10372785;28;2490;-82
2021/07/13 01:51:53;;;;;;;;;;;18.90;99.90;;;17.89;83.30;94809.03;10342772;28;2438;-80
2021/07/13 01:56:56;;;;;;;;;;;18.80;99.90;;;17.95;82.78;94806.84;10340953;28;2638;-78
2021/07/13 02:01:59;;;;;;;;;;;18.90;99.90;;;17.96;82.95;94805.72;10345822;28;2606;-80
2021/07/13 02:07:01;;;;;;;;;;;18.90;99.90;;;17.90;83.84;94807.09;10345504;28;2676;-81
2021/07/13 02:12:04;;;;;;;;;;;18.90;99.90;;;17.72;85.83;94804.63;10349964;28;2493;-81
2021/07/13 02:17:07;;;;;;;;;;;18.70;99.90;;;17.60;86.69;94815.47;10347946;28;2521;-80
2021/07/13 02:22:10;;;;;;;;;;;18.60;99.90;;;17.47;87.58;94800.31;10366467;28;2576;-81
2021/07/13 02:27:13;;;;;;;;;;;18.50;99.90;;;17.48;88.03;94799.97;10347612;28;2055;-80
2021/07/13 02:32:16;;;;;;;;;;;18.50;99.90;;;17.21;89.92;94778.94;10336341;28;2750;-81
2021/07/13 02:37:20;;;;;;;;;;;18.30;99.90;;;17.14;90.86;94771.34;10365072;28;2461;-81
2021/07/13 02:42:22;;;;;;;;;;;18.20;99.90;;;16.95;92.17;94777.34;10342157;28;2271;-81
2021/07/13 02:47:27;;;;;;;;;;;18.00;99.90;;;17.11;91.64;94771.22;10362599;28;2477;-81
2021/07/13 02:52:30;;;;;;;;;;;18.00;99.90;;;17.06;92.54;94760.63;10344834;28;2300;-82
2021/07/13 02:57:33;;;;;;;;;;;18.00;99.90;;;16.99;93.21;94758.47;10364692;28;2419;-80
2021/07/13 03:02:35;;;;;;;;;;;18.00;99.90;;;17.07;92.43;94763.00;10342713;28;2304;-81
2021/07/13 03:07:38;;;;;;;;;;;18.00;99.90;;;16.93;93.98;94765.25;10346869;28;2387;-82
2021/07/13 03:12:41;;;;;;;;;;;18.00;99.90;;;16.84;95.09;94764.53;10359648;28;2319;-81
2021/07/13 03:17:44;;;;;;;;;;;17.90;99.90;;;16.88;94.67;94782.53;10339763;28;2327;-81
2021/07/13 03:22:46;;;;;;;;;;;17.90;99.90;;;16.99;94.26;94786.41;10349422;28;2312;-80
2021/07/13 03:27:49;;;;;;;;;;;17.90;99.90;;;16.87;94.63;94780.97;10341528;28;2315;-80
2021/07/13 03:32:52;;;;;;;;;;;17.90;99.90;;;16.81;95.37;94774.16;10367411;28;2005;-80
2021/07/13 03:37:55;;;;;;;;;;;17.80;99.90;;;16.87;94.87;94796.47;10364151;28;1879;-80
2021/07/13 03:42:58;;;;;;;;;;;17.80;99.90;;;16.86;94.58;94790.22;10336204;28;2314;-79
2021/07/13 03:48:00;;;;;;;;;;;17.80;99.90;;;16.89;94.94;94789.53;10352192;28;1952;-80
2021/07/13 03:53:03;;;;;;;;;;;17.80;99.90;;;17.05;93.65;94788.88;10355922;28;2270;-80
2021/07/13 03:58:06;;;;;;;;;;;18.00;99.90;;;17.10;93.51;94794.88;10334398;28;2340;-81
2021/07/13 04:03:09;;;;;;;;;;;18.00;99.90;;;17.19;92.75;94809.16;10362714;28;2312;-80
2021/07/13 04:08:12;;;;;;;;;;;18.00;99.90;;;17.26;92.28;94817.53;10339555;28;2716;-80
2021/07/13 04:13:15;;;;;;;;;;;18.10;99.90;;;17.27;92.98;94829.97;10356731;28;2392;-81
2021/07/13 04:18:38;;;;;;;;;;;18.10;99.90;;;17.50;91.57;94821.38;10364589;28;2312;-82
2021/07/13 04:24:01;;;;;;;;;;;18.20;99.90;;;17.55;92.01;94813.78;10348656;28;2246;-80
2021/07/13 04:29:24;;;;;;;;;;;18.30;99.90;;;18.02;88.89;94791.53;10344518;28;2297;-80
2021/07/13 04:34:47;;;;;;;;;;;18.60;99.90;;;18.39;87.03;94809.66;10333113;28;2258;-80
2021/07/13 04:40:10;;;;;;;;;;;18.90;99.90;;;18.07;88.61;94793.22;10338005;28;2335;-80
2021/07/13 04:45:33;;;;;;;;;;;18.90;99.90;;;18.80;84.85;94781.25;10346493;28;2258;-79
2021/07/13 04:50:56;;;;;;;;;;;19.20;99.90;;;18.78;84.27;94783.53;10345794;28;1931;-80
2021/07/13 04:56:18;;;;;;;;;;;19.40;99.90;;;19.20;81.93;94781.06;10348273;28;2277;-81
2021/07/13 05:01:41;;;;;;;;;;;19.60;99.90;;;19.25;81.77;94786.25;10344055;28;1982;-80
2021/07/13 05:07:05;;;;;;;;;;;19.70;99.90;;;19.32;81.17;94789.16;10340179;28;2447;-79
2021/07/13 05:12:08;;;;;;;;;;;19.80;99.90;;;19.05;82.55;94784.59;10340575;28;2256;-77
2021/07/13 05:17:12;;;;;;;;;;;19.80;99.90;;;19.25;81.78;94783.53;10341955;28;2364;-79
2021/07/13 05:22:15;;;;;;;;;;;19.90;99.90;;;19.26;82.16;94784.31;10352678;28;2744;-80
2021/07/13 05:27:18;;;;;;;;;;;19.90;99.90;;;19.58;80.53;94766.03;10364775;28;2347;-78
2021/07/13 05:32:24;;;;;;;;;;;20.10;99.90;;;19.65;79.82;94756.06;10362499;28;2398;-79
2021/07/13 05:37:27;;;;;;;;;;;20.30;99.90;;;19.84;78.74;94749.84;10360570;28;2306;-81
2021/07/13 05:42:30;;;;;;;;;;;20.40;99.90;;;19.64;80.26;94748.25;10355292;28;2382;-81
2021/07/13 05:47:32;;;;;;;;;;;20.40;99.90;;;19.74;79.14;94746.91;10374950;28;2592;-79
2021/07/13 05:52:35;;;;;;;;;;;20.50;99.90;;;19.78;79.34;94751.28;10356091;28;2293;-78
2021/07/13 05:57:38;;;;;;;;;;;20.50;99.90;;;19.81;78.34;94756.03;10347770;28;2403;-80
2021/07/13 06:02:41;;;;;;;;;;;20.60;99.90;;;19.75;79.02;94757.44;10348287;28;2337;-82
2021/07/13 06:07:43;;;;;;;;;;;20.50;99.90;;;20.00;78.26;94770.84;10360927;28;2460;-83
2021/07/13 06:12:51;;;;;;;;;;;20.60;99.90;;;20.18;77.56;94772.00;10369070;28;2334;-82
2021/07/13 06:17:53;;;;;;;;;;;20.70;99.90;;;20.19;77.21;94784.50;10357173;28;2301;-82
2021/07/13 06:22:57;;;;;;;;;;;20.90;99.90;;;20.00;78.40;94771.63;10369027;28;2411;-83
2021/07/13 06:28:00;;;;;;;;;;;20.80;99.90;;;19.75;79.38;94765.63;10348080;28;2296;-82
2021/07/13 06:33:03;;;;;;;;;;;20.40;99.90;;;19.96;78.15;94765.28;10333705;28;2367;-82
2021/07/13 06:38:05;;;;;;;;;;;20.70;99.90;;;20.39;76.90;94769.69;10328957;28;2389;-82
2021/07/13 06:43:08;;;;;;;;;;;20.90;99.90;;;20.44;75.92;94766.66;10333348;28;2434;-82
2021/07/13 06:48:11;;;;;;;;;;;21.00;99.90;;;20.46;76.06;94772.56;10353036;28;2259;-82
2021/07/13 06:53:13;;;;;;;;;;;21.20;99.90;;;20.65;75.98;94768.25;10358720;28;2273;-83
2021/07/13 06:58:16;;;;;;;;;;;21.30;99.90;;;20.84;74.93;94781.88;10356144;28;2356;-83
2021/07/13 07:03:19;;;;;;;;;;;21.50;99.90;;;21.00;74.12;94771.63;10337909;28;2650;-82
2021/07/13 07:08:22;;;;;;;;;;;21.60;99.90;;;20.91;74.08;94787.44;10332664;28;2409;-81
2021/07/13 07:13:42;;;;;;;;;;;21.70;99.90;;;20.85;74.75;94805.28;10332752;28;2368;-84
2021/07/13 07:18:45;;;;;;;;;;;21.60;99.90;;;20.98;74.66;94808.63;10348513;28;2383;-82
2021/07/13 07:23:47;;;;;;;;;;;21.60;99.90;;;21.33;73.11;94803.03;10358533;28;2063;-78
2021/07/13 07:28:50;;;;;;;;;;;21.80;99.90;;;21.69;71.34;94798.13;10336645;28;2481;-80
2021/07/13 07:33:53;;;;;;;;;;;22.10;99.90;;;22.27;68.65;94784.09;10329685;28;2500;-80
2021/07/13 07:38:56;;;;;;;;;;;22.60;99.90;;;22.87;64.94;94789.50;10319753;28;2660;-79
2021/07/13 07:44:00;;;;;;;;;;;23.10;99.90;;;22.70;65.94;94796.31;10324042;28;2748;-79
2021/07/13 07:49:03;;;;;;;;;;;23.20;99.90;;;22.77;65.61;94785.44;10327578;28;2764;-79
2021/07/13 07:54:05;;;;;;;;;;;23.40;99.90;;;23.16;64.62;94788.63;10329841;28;2264;-80
2021/07/13 07:59:08;;;;;;;;;;;23.60;99.90;;;23.53;62.74;94784.19;10332262;28;2357;-79
2021/07/13 08:04:11;;;;;;;;;;;23.90;99.90;;;23.43;61.94;94808.44;10343310;28;2391;-81
2021/07/13 08:09:13;;;;;;;;;;;24.10;99.90;;;23.49;61.82;94814.38;10353273;28;2374;-81
2021/07/13 08:14:16;;;;;;;;;;;24.00;99.90;;;23.68;61.87;94816.91;10337737;28;1974;-82
2021/07/13 08:19:19;;;;;;;;;;;24.10;99.90;;;24.19;60.13;94818.00;10333099;28;2219;-81
2021/07/13 08:24:22;;;;;;;;;;;24.30;99.90;;;23.58;62.45;94819.50;10332343;28;2266;-82
2021/07/13 08:29:25;;;;;;;;;;;24.10;99.90;;;23.83;60.88;94812.28;10331331;28;2363;-83
2021/07/13 08:34:27;;;;;;;;;;;24.50;99.90;;;24.12;59.29;94813.28;10336221;28;2219;-83
2021/07/13 08:39:30;;;;;;;;;;;24.60;99.90;;;24.79;58.08;94828.50;10356523;28;2076;-83
2021/07/13 08:44:33;;;;;;;;;;;25.10;99.90;;;25.12;56.55;94834.91;10378416;28;2411;-82
2021/07/13 08:49:35;;;;;;;;;;;25.50;99.90;;;25.05;55.10;94835.66;10367953;28;2348;-82
2021/07/13 08:54:38;;;;;;;;;;;25.50;99.90;;;24.21;57.87;94843.91;10384058;28;2332;-79
2021/07/13 08:59:41;;;;;;;;;;;25.00;99.90;;;24.39;57.65;94843.25;10361535;28;2228;-79
2021/07/13 09:04:43;;;;;;;;;;;24.80;99.90;;;24.47;56.85;94842.09;10334280;28;2324;-80
2021/07/13 09:09:52;;;;;;;;;;;25.00;99.90;;;24.28;57.92;94854.13;10339277;28;2341;-83
2021/07/13 09:14:55;;;;;;;;;;;24.80;99.90;;;23.72;59.89;94867.06;10333510;28;2181;-81
2021/07/13 09:19:58;;;;;;;;;;;24.50;99.90;;;24.02;59.04;94870.84;10339888;28;2380;-82
2021/07/13 09:25:08;;;;;;;;;;;24.50;99.90;;;24.19;58.26;94881.94;10360271;28;2150;-80
2021/07/13 09:30:11;;;;;;;;;;;24.60;99.90;;;24.33;57.95;94883.22;10353013;28;2340;-79
2021/07/13 09:35:14;;;;;;;;;;;24.70;99.90;;;24.81;55.99;94881.09;10353365;28;2306;-82
2021/07/13 09:40:17;;;;;;;;;;;25.00;99.90;;;24.22;56.82;94875.69;10330837;28;2741;-81
2021/07/13 09:45:19;;;;;;;;;;;25.00;99.90;;;24.52;56.05;94864.50;10338850;28;2237;-81
2021/07/13 09:50:22;;;;;;;;;;;25.00;99.90;;;24.00;57.67;94858.28;10339574;28;2300;-80
2021/07/13 09:55:25;;;;;;;;;;;24.70;99.90;;;24.11;57.56;94857.56;10339090;28;2718;-82
2021/07/13 10:00:28;;;;;;;;;;;24.60;99.90;;;24.30;56.88;94862.00;10338327;28;2578;-81
2021/07/13 10:05:30;;;;;;;;;;;24.80;99.90;;;25.29;54.87;94856.94;10346036;28;2666;-81
2021/07/13 10:10:33;;;;;;;;;;;25.30;99.90;;;23.71;59.88;94892.94;10373459;28;2292;-81
2021/07/13 10:15:36;;;;;;;;;;;24.80;99.90;;;21.83;63.53;94902.28;10374664;28;2293;-81
2021/07/13 10:20:39;;;;;;;;;;;23.50;99.90;;;20.97;66.24;94933.53;10356433;28;2185;-80
2021/07/13 10:25:42;;;;;;;;;;;22.30;99.90;;;20.59;67.50;94950.69;10345829;28;2329;-80
2021/07/13 10:30:46;;;;;;;;;;;21.80;99.90;;;20.21;68.44;94967.72;10330411;28;2353;-79
2021/07/13 10:35:49;;;;;;;;;;;21.20;99.90;;;19.92;68.54;94964.34;10332202;28;2340;-81
2021/07/13 10:40:53;;;;;;;;;;;21.00;99.90;;;19.92;68.77;94958.88;10331548;28;2538;-80
2021/07/13 10:45:56;;;;;;;;;;;20.80;99.90;;;19.28;69.54;94970.06;10328046;28;2364;-80
2021/07/13 10:51:01;;;;;;;;;;;20.50;99.90;;;19.14;70.18;94964.97;10324292;28;2846;-79
2021/07/13 10:56:04;;;;;;;;;;;20.20;99.90;;;19.05;69.19;94984.22;10329094;28;2365;-80
2021/07/13 11:01:06;;;;;;;;;;;20.00;99.90;;;19.10;68.53;95007.69;10327803;28;2443;-82
2021/07/13 11:06:09;;;;;;;;;;;19.90;99.90;;;19.04;68.56;95015.31;10333004;28;2333;-81
2021/07/13 11:11:12;;;;;;;;;;;20.00;99.90;;;18.98;67.37;95026.81;10331602;28;2436;-79
2021/07/13 11:16:15;;;;;;;;;;;20.00;99.90;;;19.09;67.25;95028.69;10342261;28;2452;-81
2021/07/13 11:21:18;;;;;;;;;;;19.90;99.90;;;19.36;64.99;95034.50;10332018;28;2384;-82
2021/07/13 11:26:20;;;;;;;;;;;20.00;99.90;;;18.95;65.20;95031.00;10331666;28;2301;-82
2021/07/13 11:31:23;;;;;;;;;;;19.90;99.90;;;18.16;66.40;95049.53;10335403;28;2520;-79
2021/07/13 11:36:26;;;;;;;;;;;19.50;99.90;;;17.90;68.02;95057.22;10331031;28;2344;-82
2021/07/13 11:41:29;;;;;;;;;;;19.00;99.90;;;18.08;68.89;95061.31;10331119;28;2367;-82
2021/07/13 11:46:32;;;;;;;;;;;18.90;99.90;;;17.97;67.69;95043.84;10331308;28;2379;-77
2021/07/13 11:51:35;;;;;;;;;;;18.90;99.90;;;18.14;66.83;95059.97;10338858;28;2340;-78
2021/07/13 11:56:37;;;;;;;;;;;18.90;99.90;;;18.05;66.78;95068.22;10342068;28;2328;-81
2021/07/13 12:01:40;;;;;;;;;;;18.90;99.90;;;17.83;66.67;95083.03;10330605;28;2430;-80
2021/07/13 12:06:43;;;;;;;;;;;18.80;99.90;;;17.55;68.11;95095.59;10347231;28;2271;-80
2021/07/13 12:11:46;;;;;;;;;;;18.50;99.90;;;17.74;66.37;95095.91;10354033;28;2756;-81
2021/07/13 12:16:48;;;;;;;;;;;18.60;99.90;;;17.72;67.25;95113.69;10369276;28;2240;-80
2021/07/13 12:21:52;;;;;;;;;;;18.50;99.90;;;17.78;67.19;95124.00;10370948;28;2355;-81
2021/07/13 12:26:55;;;;;;;;;;;18.50;99.90;;;17.52;69.13;95121.50;10346176;28;2282;-80
2021/07/13 12:31:58;;;;;;;;;;;18.40;99.90;;;17.49;68.88;95132.25;10327912;28;2339;-79
2021/07/13 12:37:01;;;;;;;;;;;18.40;99.90;;;17.35;68.89;95120.84;10341406;28;2248;-81
2021/07/13 12:42:03;;;;;;;;;;;18.20;99.90;;;17.20;69.95;95125.78;10335350;28;2410;-80
2021/07/13 12:47:06;;;;;;;;;;;18.20;99.90;;;17.49;68.79;95124.09;10346912;28;2317;-80
2021/07/13 12:52:09;;;;;;;;;;;18.20;99.90;;;17.20;69.54;95120.34;10341284;28;2238;-82
2021/07/13 12:57:12;;;;;;;;;;;18.20;99.90;;;17.30;69.88;95132.72;10335285;28;2377;-80
2021/07/13 13:02:15;;;;;;;;;;;18.00;99.90;;;17.54;69.04;95149.13;10360468;28;2300;-80
2021/07/13 13:07:17;;;;;;;;;;;18.20;99.90;;;17.10;70.46;95161.44;10338096;28;2402;-80
2021/07/13 13:12:20;;;;;;;;;;;18.10;99.90;;;16.73;71.33;95176.66;10331129;28;2336;-80
2021/07/13 13:17:23;;;;;;;;;;;17.80;99.90;;;16.47;75.04;95190.31;10337826;28;2296;-79
2021/07/13 13:22:26;;;;;;;;;;;17.60;99.90;;;16.11;78.56;95194.28;10341195;28;2251;-82
2021/07/13 13:27:28;;;;;;;;;;;17.20;99.90;;;15.82;84.22;95170.56;10362114;28;2305;-83
2021/07/13 13:32:31;;;;;;;;;;;16.90;99.90;;;15.58;90.13;95184.56;10370550;28;2273;-82
2021/07/13 13:37:46;;;;;;;;;;;16.70;99.90;;;15.14;90.59;95167.53;10369082;28;2315;-84
2021/07/13 13:42:49;;;;;;;;;;;16.40;99.90;;;14.87;94.38;95219.19;10376282;28;2559;-84
2021/07/13 13:47:52;;;;;;;;;;;16.00;99.90;;;14.91;96.53;95325.72;10376494;28;2300;-83
2021/07/13 13:52:55;;;;;;;;;;;15.90;99.90;;;14.80;100.00;95235.88;10368865;28;2297;-83
2021/07/13 13:57:58;;;;;;;;;;;15.90;99.90;;;14.42;100.00;95249.06;10369085;28;2181;-83
2021/07/13 14:03:00;;;;;;;;;;;15.50;99.90;;;14.69;100.00;95350.09;10368431;28;2378;-84
2021/07/13 14:08:03;;;;;;;;;;;15.50;99.90;;;14.48;100.00;95384.97;10358307;28;2036;-80
2021/07/13 14:13:06;;;;;;;;;;;15.50;99.90;;;14.36;100.00;95322.50;10342716;28;2265;-83
2021/07/13 14:18:09;;;;;;;;;;;15.30;99.90;;;14.13;100.00;95263.06;10340562;28;2284;-83
2021/07/13 14:23:12;;;;;;;;;;;15.10;99.90;;;14.00;100.00;95263.94;10360933;28;2275;-81
2021/07/13 14:28:14;;;;;;;;;;;15.00;99.90;;;13.86;100.00;95285.56;10346106;28;2127;-83
2021/07/13 14:33:17;;;;;;;;;;;14.80;99.90;;;14.21;100.00;95338.00;10377022;28;1715;-82
2021/07/13 14:38:20;;;;;;;;;;;14.90;99.90;;;14.31;100.00;95350.44;10365426;28;2269;-81
2021/07/13 14:43:23;;;;;;;;;;;15.10;99.90;;;14.20;100.00;95292.34;10341285;28;2351;-81
2021/07/13 14:48:26;;;;;;;;;;;15.10;99.90;;;13.83;100.00;95264.59;10346626;28;2385;-82
2021/07/13 14:53:29;;;;;;;;;;;14.90;99.90;;;13.73;100.00;95259.41;10338639;28;2383;-81
2021/07/13 14:58:33;;;;;;;;;;;14.60;99.90;;;13.86;100.00;95299.09;10336201;28;1917;-84
2021/07/13 15:03:36;;;;;;;;;;;14.70;99.90;;;13.93;100.00;95322.97;10334022;28;2295;-82
2021/07/13 15:08:39;;;;;;;;;;;14.70;99.90;;;14.00;100.00;95324.16;10324528;28;2693;-82
2021/07/13 15:13:41;;;;;;;;;;;14.80;99.90;;;13.87;100.00;95314.22;10353197;28;2561;-83
2021/07/13 15:18:44;;;;;;;;;;;14.80;99.90;;;13.77;100.00;95346.84;10345489;28;2224;-82
2021/07/13 15:23:47;;;;;;;;;;;14.70;99.90;;;13.81;100.00;95382.16;10338101;28;2577;-81
2021/07/13 15:28:50;;;;;;;;;;;14.70;99.90;;;13.92;100.00;95381.63;10344528;28;2297;-83
2021/07/13 15:33:53;;;;;;;;;;;14.80;99.90;;;13.90;100.00;95362.22;10348387;28;2342;-84
2021/07/13 15:38:56;;;;;;;;;;;14.90;99.90;;;13.84;100.00;95328.31;10350589;28;2645;-82
2021/07/13 15:43:58;;;;;;;;;;;14.80;99.90;;;13.76;100.00;95300.13;10365234;28;2430;-83
2021/07/13 15:49:01;;;;;;;;;;;14.70;99.90;;;13.74;100.00;95271.81;10371567;28;2301;-83
2021/07/13 15:54:04;;;;;;;;;;;14.70;99.90;;;13.78;100.00;95234.97;10360786;28;2368;-85
2021/07/13 15:59:06;;;;;;;;;;;14.60;99.90;;;14.15;100.00;95222.19;10363418;28;2083;-82
2021/07/13 16:04:09;;;;;;;;;;;14.80;99.90;;;14.45;100.00;95198.97;10373287;28;2452;-83
2021/07/13 16:09:12;;;;;;;;;;;15.10;99.90;;;14.87;100.00;95208.38;10342630;28;1978;-84
2021/07/13 16:14:15;;;;;;;;;;;15.40;99.90;;;14.87;100.00;95205.66;10328092;28;2230;-81
2021/07/13 16:19:18;;;;;;;;;;;15.60;99.90;;;15.19;100.00;95200.97;10340675;28;2388;-82
2021/07/13 16:24:20;;;;;;;;;;;15.80;99.90;;;15.46;100.00;95176.31;10333912;28;2883;-80
2021/07/13 16:29:23;;;;;;;;;;;16.00;99.90;;;15.40;100.00;95183.78;10350706;28;2227;-84
2021/07/13 16:34:26;;;;;;;;;;;16.10;99.90;;;15.70;100.00;95196.72;10334886;28;2395;-81
2021/07/13 16:39:29;;;;;;;;;;;16.30;99.90;;;15.82;100.00;95189.53;10327637;28;2297;-81
2021/07/13 16:44:31;;;;;;;;;;;16.40;99.90;;;16.02;100.00;95141.97;10353968;28;2247;-84
2021/07/13 16:49:34;;;;;;;;;;;16.60;99.90;;;15.76;100.00;95203.56;10354355;28;2234;-83
2021/07/13 16:54:38;;;;;;;;;;;16.60;99.90;;;15.53;100.00;95228.09;10340451;28;2229;-79
2021/07/13 16:59:41;;;;;;;;;;;16.50;99.90;;;15.85;100.00;95239.59;10357055;28;2376;-84
2021/07/13 17:04:44;;;;;;;;;;;16.50;99.90;;;15.72;100.00;95252.19;10332382;28;2426;-83
2021/07/13 17:09:48;;;;;;;;;;;16.50;99.90;;;15.67;100.00;95228.75;10326664;28;2246;-81
2021/07/13 17:14:51;;;;;;;;;;;16.60;99.90;;;15.60;100.00;95233.03;10345539;28;2421;-82
2021/07/13 17:19:54;;;;;;;;;;;16.50;99.90;;;15.55;100.00;95231.28;10342850;28;2353;-82
2021/07/13 17:25:03;;;;;;;;;;;16.50;99.90;;;15.59;100.00;95209.78;10345456;28;2246;-82
2021/07/13 17:30:23;;;;;;;;;;;16.50;99.90;;;15.53;100.00;95222.66;10346975;28;2352;-80
2021/07/13 17:35:25;;;;;;;;;;;16.50;99.90;;;15.48;100.00;95233.66;10342226;28;2823;-81
2021/07/13 17:40:29;;;;;;;;;;;16.40;99.90;;;15.48;100.00;95241.78;10334146;28;2356;-79
2021/07/13 17:45:32;;;;;;;;;;;16.40;99.90;;;15.48;100.00;95252.63;10337403;28;2230;-81
2021/07/13 17:50:34;;;;;;;;;;;16.40;99.90;;;15.51;100.00;95268.22;10342398;28;2305;-80
2021/07/13 17:55:37;;;;;;;;;;;16.40;99.90;;;15.35;100.00;95286.84;10346606;28;2139;-81
2021/07/13 18:00:40;;;;;;;;;;;16.40;99.90;;;15.37;100.00;95306.28;10369936;28;2351;-83
2021/07/13 18:05:43;;;;;;;;;;;16.30;99.90;;;15.35;100.00;95276.00;10378677;28;2254;-83
2021/07/13 18:10:45;;;;;;;;;;;16.30;99.90;;;15.21;100.00;95274.56;10350723;28;2321;-81
2021/07/13 18:15:48;;;;;;;;;;;16.20;99.90;;;15.05;100.00;95260.66;10325412;28;2304;-80
2021/07/13 18:20:51;;;;;;;;;;;16.10;99.90;;;14.96;100.00;95257.94;10358316;28;2382;-81
2021/07/13 18:25:53;;;;;;;;;;;16.00;99.90;;;14.78;100.00;95245.44;10362970;28;2356;-82
2021/07/13 18:30:56;;;;;;;;;;;15.90;99.90;;;14.71;100.00;95253.22;10356037;28;2114;-80
2021/07/13 18:35:59;;;;;;;;;;;15.80;99.90;;;14.69;100.00;95248.09;10342496;28;2364;-80
2021/07/13 18:41:01;;;;;;;;;;;15.70;99.90;;;14.65;100.00;95265.28;10327925;28;2317;-81
2021/07/13 18:46:04;;;;;;;;;;;15.70;99.90;;;14.63;100.00;95264.78;10318696;28;2426;-80
2021/07/13 18:51:10;;;;;;;;;;;15.60;99.90;;;14.56;100.00;95270.63;10317374;28;2371;-79
2021/07/13 18:56:12;;;;;;;;;;;15.60;99.90;;;14.52;100.00;95272.38;10323925;28;2396;-80
2021/07/13 19:01:15;;;;;;;;;;;15.60;99.90;;;14.52;100.00;95289.41;10321570;28;2325;-79
2021/07/13 19:06:18;;;;;;;;;;;15.60;99.90;;;14.55;100.00;95280.66;10320089;28;2391;-79
2021/07/13 19:11:21;;;;;;;;;;;15.60;99.90;;;14.45;100.00;95253.84;10319970;28;2391;-80
2021/07/13 19:16:24;;;;;;;;;;;15.50;99.90;;;14.26;100.00;95264.09;10322991;28;2210;-80
2021/07/13 19:21:27;;;;;;;;;;;15.40;99.90;;;14.23;100.00;95283.63;10320157;28;1722;-80
2021/07/13 19:26:30;;;;;;;;;;;15.30;99.90;;;14.16;100.00;95294.06;10315496;28;2473;-80
2021/07/13 19:31:32;;;;;;;;;;;15.20;99.90;;;14.43;100.00;95299.31;10324846;28;2280;-80
2021/07/13 19:41:57;;;;;;;;;;;15.40;99.90;;;14.54;100.00;95295.28;10320597;28;2307;-80
2021/07/13 19:46:59;;;;;;;;;;;15.40;99.90;;;14.71;100.00;95318.94;10340003;28;2226;-79
2021/07/13 19:52:02;;;;;;;;;;;15.50;99.90;;;14.71;100.00;95315.44;10331276;28;2419;-79
2021/07/13 19:57:05;;;;;;;;;;;15.60;99.90;;;14.68;100.00;95292.50;10340572;28;2276;-80
2021/07/13 20:02:07;;;;;;;;;;;15.60;99.90;;;14.62;100.00;95284.81;10323670;28;2411;-79
2021/07/13 20:07:10;;;;;;;;;;;15.60;99.90;;;14.65;100.00;95273.41;10343829;28;2383;-77
2021/07/13 20:12:13;;;;;;;;;;;15.60;99.90;;;14.43;100.00;95276.91;10322969;28;2333;-78
2021/07/13 20:17:16;;;;;;;;;;;15.50;99.90;;;14.45;100.00;95270.09;10316619;28;2300;-79
2021/07/13 20:22:19;;;;;;;;;;;15.40;99.90;;;14.24;100.00;95296.03;10310514;28;2423;-78
2021/07/13 20:27:22;;;;;;;;;;;15.40;99.90;;;14.20;100.00;95295.06;10312408;28;2594;-77
2021/07/13 20:32:29;;;;;;;;;;;15.20;99.90;;;14.21;100.00;95304.75;10322021;28;2244;-77
2021/07/13 20:37:32;;;;;;;;;;;15.20;99.90;;;13.99;100.00;95300.13;10319162;28;2355;-79
2021/07/13 20:42:34;;;;;;;;;;;15.10;99.90;;;13.91;100.00;95309.78;10319805;28;2615;-80
2021/07/13 20:47:57;;;;;;;;;;;15.00;99.90;;;13.87;100.00;95289.91;10314344;28;2340;-79
2021/07/13 20:53:00;;;;;;;;;;;15.00;99.90;;;13.90;100.00;95288.47;10319434;28;2441;-80
2021/07/13 20:58:02;;;;;;;;;;;14.90;99.90;;;13.85;100.00;95313.69;10319937;28;2469;-79
2021/07/13 21:03:05;;;;;;;;;;;14.90;99.90;;;13.91;100.00;95330.59;10321752;28;2384;-78
2021/07/13 21:08:08;;;;;;;;;;;14.90;99.90;;;14.02;100.00;95321.94;10313294;28;2474;-79
2021/07/13 21:13:11;;;;;;;;;;;14.90;99.90;;;14.10;100.00;95315.00;10314312;28;2447;-79
2021/07/13 21:18:13;;;;;;;;;;;15.00;99.90;;;14.02;100.00;95311.16;10315824;28;2644;-79
2021/07/13 21:23:16;;;;;;;;;;;15.00;99.90;;;13.82;100.00;95300.81;10317119;28;2736;-78
2021/07/13 21:28:19;;;;;;;;;;;14.90;99.90;;;13.94;100.00;95317.28;10327362;28;2772;-78
2021/07/13 21:33:22;;;;;;;;;;;14.80;99.90;;;14.09;100.00;95334.25;10320015;28;2363;-78
2021/07/13 21:38:24;;;;;;;;;;;14.90;99.90;;;14.01;100.00;95382.50;10323029;28;2341;-79
2021/07/13 21:43:27;;;;;;;;;;;15.00;99.90;;;14.17;100.00;95360.53;10322286;28;2685;-80
2021/07/13 21:48:30;;;;;;;;;;;15.10;99.90;;;14.31;100.00;95353.16;10319931;28;2462;-79
2021/07/13 21:53:33;;;;;;;;;;;15.20;99.90;;;14.34;100.00;95360.66;10325316;28;2380;-77
2021/07/13 21:58:35;;;;;;;;;;;15.20;99.90;;;14.40;100.00;95367.56;10332831;28;2296;-78
2021/07/13 22:03:38;;;;;;;;;;;15.30;99.90;;;14.39;100.00;95357.84;10333186;28;2248;-78
2021/07/13 22:08:40;;;;;;;;;;;15.30;99.90;;;14.38;100.00;95345.44;10325529;28;2363;-77
2021/07/13 22:13:43;;;;;;;;;;;15.40;99.90;;;14.45;100.00;95329.59;10327560;28;2356;-79
2021/07/13 22:18:46;;;;;;;;;;;15.40;99.90;;;14.41;100.00;95325.09;10331114;28;2336;-78
2021/07/13 22:23:49;;;;;;;;;;;15.40;99.90;;;14.30;100.00;95311.00;10334428;28;2453;-79
2021/07/13 22:29:12;;;;;;;;;;;15.40;99.90;;;14.28;100.00;95329.47;10347928;28;2375;-79
2021/07/13 22:34:15;;;;;;;;;;;15.30;99.90;;;14.32;100.00;95341.25;10337808;28;2305;-78
2021/07/13 22:39:18;;;;;;;;;;;15.30;99.90;;;14.50;100.00;95336.78;10330824;28;2264;-79
2021/07/13 22:44:21;;;;;;;;;;;15.40;99.90;;;14.45;100.00;95307.94;10335177;28;2305;-78
2021/07/13 22:49:23;;;;;;;;;;;15.40;99.90;;;14.46;100.00;95287.94;10338954;28;2284;-80
2021/07/13 22:54:26;;;;;;;;;;;15.50;99.90;;;14.39;100.00;95271.31;10338107;28;2260;-79
2021/07/13 22:59:29;;;;;;;;;;;15.40;99.90;;;14.59;100.00;95297.88;10344826;28;2285;-79
2021/07/13 23:04:31;;;;;;;;;;;15.50;99.90;;;14.39;100.00;95324.59;10352880;28;2399;-76
2021/07/13 23:09:34;;;;;;;;;;;15.40;99.90;;;14.38;100.00;95347.31;10351269;28;2225;-77
2021/07/13 23:14:37;;;;;;;;;;;15.40;99.90;;;14.25;100.00;95357.09;10349017;28;2305;-78